Time;durP1;ratioP1;P1;durP2;ratioP2;P2;SDS_P1;SDS_P2;PMS_P1;PMS_P2;Temp;Humidity;BMP_temperature;BMP_pressure;BME280_temperature;BME280_humidity;BME280_pressure;Samples;Min_cycle;Max_cycle;Signal;HPM_P1;HPM_P2
2022/06/01 00:01:16;;;;;;;12.68;9.05;;;11.20;99.90;;;;;;5051823;28;20080;-71
2022/06/01 00:03:42;;;;;;;12.95;8.70;;;11.20;99.90;;;;;;5051906;28;20449;-71
2022/06/01 00:06:09;;;;;;;9.40;8.40;;;11.20;99.90;;;;;;5051896;28;20076;-71
2022/06/01 00:08:36;;;;;;;9.70;8.55;;;11.30;99.90;;;;;;5050699;28;20080;-71
2022/06/01 00:11:02;;;;;;;10.40;8.63;;;11.30;99.90;;;;;;5050247;28;20498;-71
2022/06/01 00:13:28;;;;;;;12.30;9.63;;;11.30;99.90;;;;;;5051787;28;20041;-71
2022/06/01 00:15:54;;;;;;;10.80;9.18;;;11.30;99.90;;;;;;5051699;28;20076;-71
2022/06/01 00:18:22;;;;;;;12.63;9.60;;;11.30;99.90;;;;;;5051517;28;20040;-71
2022/06/01 00:20:48;;;;;;;10.60;9.23;;;11.20;99.90;;;;;;5050091;28;20052;-71
2022/06/01 00:23:14;;;;;;;15.10;11.02;;;11.30;99.90;;;;;;5051756;28;20144;-71
2022/06/01 00:25:41;;;;;;;12.02;9.82;;;11.20;99.90;;;;;;5051649;28;20128;-71
2022/06/01 00:28:07;;;;;;;12.90;9.70;;;11.30;99.90;;;;;;5051915;28;20055;-71
2022/06/01 00:30:33;;;;;;;11.23;9.18;;;11.20;99.90;;;;;;5049976;28;20041;-71
2022/06/01 00:32:58;;;;;;;11.00;9.82;;;11.20;99.90;;;;;;5051744;28;20047;-71
2022/06/01 00:35:24;;;;;;;12.90;9.50;;;11.10;99.90;;;;;;5050276;28;20044;-71
2022/06/01 00:37:50;;;;;;;11.05;9.75;;;11.10;99.90;;;;;;5050259;28;20037;-71
2022/06/01 00:40:19;;;;;;;12.20;9.30;;;11.20;99.90;;;;;;5051053;28;20044;-71
2022/06/01 00:42:47;;;;;;;11.10;9.90;;;11.20;99.90;;;;;;5050253;28;20095;-71
2022/06/01 00:45:16;;;;;;;10.73;9.27;;;11.20;99.90;;;;;;5050178;28;20045;-71
2022/06/01 00:47:42;;;;;;;14.57;10.45;;;11.20;99.90;;;;;;5050283;28;20041;-71
2022/06/01 00:50:25;;;;;;;12.50;11.20;;;11.20;99.90;;;;;;5051068;28;20424;-71
2022/06/01 00:52:58;;;;;;;12.85;10.73;;;11.20;99.90;;;;;;5050468;28;20045;-71
2022/06/01 00:55:34;;;;;;;12.52;9.75;;;11.20;99.90;;;;;;5051586;28;20045;-71
2022/06/01 00:58:07;;;;;;;13.60;11.13;;;11.30;99.90;;;;;;5050147;28;20037;-71
2022/06/01 01:00:34;;;;;;;12.38;11.07;;;11.20;99.90;;;;;;5051165;28;20055;-71
2022/06/01 01:03:04;;;;;;;15.77;12.63;;;11.20;99.90;;;;;;5051361;28;20045;-71
2022/06/01 01:05:33;;;;;;;15.43;11.80;;;11.20;99.90;;;;;;5049946;28;20053;-71
2022/06/01 01:08:01;;;;;;;17.00;13.45;;;11.20;99.90;;;;;;5051480;28;20033;-71
2022/06/01 01:10:27;;;;;;;16.50;12.02;;;11.20;99.90;;;;;;5049506;28;20044;-71
2022/06/01 01:12:56;;;;;;;14.38;11.90;;;11.20;99.90;;;;;;5051256;28;20041;-71
2022/06/01 01:15:24;;;;;;;14.38;11.93;;;11.20;99.90;;;;;;5049942;28;20082;-71
2022/06/01 01:17:52;;;;;;;13.60;11.73;;;11.20;99.90;;;;;;5051116;28;20502;-71
2022/06/01 01:20:19;;;;;;;16.15;12.80;;;11.20;99.90;;;;;;5050749;28;20499;-71
2022/06/01 01:23:02;;;;;;;14.73;12.65;;;11.20;99.90;;;;;;5051334;28;20056;-71
2022/06/01 01:25:38;;;;;;;;;;;11.20;99.90;;;;;;5050318;28;20045;-71
2022/06/01 01:28:05;;;;;;;17.63;12.35;;;11.20;99.90;;;;;;5051006;28;19917;-71
2022/06/01 01:30:38;;;;;;;17.45;13.32;;;11.20;99.90;;;;;;5053034;28;20072;-71
2022/06/01 01:33:05;;;;;;;18.27;13.98;;;11.20;99.90;;;;;;5053542;28;20080;-71
2022/06/01 01:35:31;;;;;;;15.80;13.27;;;11.20;99.90;;;;;;5054823;28;20041;-71
2022/06/01 01:38:01;;;;;;;16.30;13.13;;;11.20;99.90;;;;;;5053395;28;20483;-71
2022/06/01 01:40:26;;;;;;;15.18;12.38;;;11.20;99.90;;;;;;5054146;28;20087;-71
2022/06/01 01:42:59;;;;;;;16.77;13.65;;;11.20;99.90;;;;;;5054465;28;20442;-71
2022/06/01 01:45:27;;;;;;;16.70;14.07;;;11.20;99.90;;;;;;5053568;28;20503;-71
2022/06/01 01:47:53;;;;;;;19.48;15.23;;;11.20;99.90;;;;;;5053254;28;20069;-71
2022/06/01 01:50:20;;;;;;;18.70;14.15;;;11.20;99.90;;;;;;5054125;28;20443;-71
2022/06/01 01:52:47;;;;;;;18.27;13.57;;;11.20;99.90;;;;;;5053164;28;20103;-70
2022/06/01 01:55:39;;;;;;;15.55;13.55;;;11.20;99.90;;;;;;5053040;28;20040;-71
2022/06/01 01:58:19;;;;;;;17.27;15.40;;;11.20;99.90;;;;;;5053845;28;20084;-71
2022/06/01 02:00:58;;;;;;;16.83;13.90;;;11.20;99.90;;;;;;5053925;28;20126;-71
2022/06/01 02:03:23;;;;;;;17.13;14.40;;;11.30;99.90;;;;;;5052889;28;20108;-71
2022/06/01 02:06:04;;;;;;;17.48;14.02;;;11.20;99.90;;;;;;5053039;28;20499;-71
2022/06/01 02:08:41;;;;;;;16.67;14.60;;;11.20;99.90;;;;;;5054297;28;20048;-71
2022/06/01 02:14:09;;;;;;;17.73;14.02;;;11.20;99.90;;;;;;5052583;28;20048;-71
2022/06/01 02:16:50;;;;;;;18.00;13.52;;;11.20;99.90;;;;;;5052935;28;20047;-71
2022/06/01 02:19:23;;;;;;;17.98;14.32;;;11.20;99.90;;;;;;5053932;28;20045;-71
2022/06/01 02:21:50;;;;;;;18.00;15.00;;;11.20;99.90;;;;;;5035613;28;20052;-71
2022/06/01 02:24:17;;;;;;;16.35;14.48;;;11.20;99.90;;;;;;5053728;28;20525;-71
2022/06/01 02:26:43;;;;;;;17.65;14.13;;;11.20;99.90;;;;;;5052382;28;20114;-71
2022/06/01 02:29:15;;;;;;;17.33;14.70;;;11.20;99.90;;;;;;5053757;28;20076;-71
2022/06/01 02:31:42;;;;;;;18.40;15.60;;;11.20;99.90;;;;;;5035356;28;20041;-71
2022/06/01 02:34:09;;;;;;;18.95;15.32;;;11.10;99.90;;;;;;5052353;28;20115;-71
2022/06/01 02:36:38;;;;;;;17.85;15.60;;;11.10;99.90;;;;;;5053590;28;20036;-71
2022/06/01 02:39:07;;;;;;;18.15;15.15;;;11.10;99.90;;;;;;5052048;28;20045;-71
2022/06/01 02:44:18;;;;;;;16.10;14.38;;;11.10;99.90;;;;;;5053519;28;20098;-71
2022/06/01 02:46:43;;;;;;;17.50;14.70;;;11.00;99.90;;;;;;5053322;28;20474;-71
2022/06/01 02:49:09;;;;;;;18.55;15.02;;;11.00;99.90;;;;;;5051939;28;20119;-71
2022/06/01 02:51:34;;;;;;;17.80;15.57;;;11.00;99.90;;;;;;5052794;28;20061;-71
2022/06/01 02:54:00;;;;;;;20.38;16.27;;;11.00;99.90;;;;;;5053455;28;20123;-71
2022/06/01 02:56:26;;;;;;;21.02;16.55;;;10.90;99.90;;;;;;5053298;28;20036;-71
2022/06/01 02:58:52;;;;;;;19.65;16.40;;;10.90;99.90;;;;;;5051872;28;20041;-71
2022/06/01 03:01:17;;;;;;;19.52;17.40;;;11.00;99.90;;;;;;5052822;28;20116;-71
2022/06/01 03:03:43;;;;;;;20.27;16.85;;;10.90;99.90;;;;;;5051949;28;20124;-71
2022/06/01 03:06:09;;;;;;;22.38;18.38;;;10.90;99.90;;;;;;5051902;28;20051;-71
2022/06/01 03:08:34;;;;;;;20.67;17.98;;;10.90;99.90;;;;;;5052897;28;20155;-71
2022/06/01 03:11:00;;;;;;;24.73;18.05;;;10.90;99.90;;;;;;5051186;28;20064;-71
2022/06/01 03:13:26;;;;;;;24.42;18.80;;;10.90;99.90;;;;;;5051834;28;20075;-71
2022/06/01 03:15:53;;;;;;;22.10;17.60;;;10.90;99.90;;;;;;5052815;28;20203;-71
2022/06/01 03:18:20;;;;;;;23.23;20.20;;;10.90;99.90;;;;;;5052797;28;20102;-71
2022/06/01 03:20:45;;;;;;;22.15;17.52;;;10.90;99.90;;;;;;5052217;28;20037;-71
2022/06/01 03:23:11;;;;;;;25.45;18.55;;;10.90;99.90;;;;;;5052869;28;20063;-71
2022/06/01 03:25:37;;;;;;;25.40;18.65;;;10.90;99.90;;;;;;5051280;28;20406;-71
2022/06/01 03:28:05;;;;;;;21.23;17.55;;;10.80;99.90;;;;;;5052710;28;20040;-71
2022/06/01 03:30:32;;;;;;;21.27;18.92;;;10.90;99.90;;;;;;5050807;28;20045;-71
2022/06/01 03:32:58;;;;;;;22.05;19.73;;;10.80;99.90;;;;;;5051227;28;20486;-71
2022/06/01 03:35:29;;;;;;;22.27;18.33;;;10.80;99.90;;;;;;5052371;28;20044;-71
2022/06/01 03:37:57;;;;;;;20.73;17.88;;;10.80;99.90;;;;;;5034403;28;20051;-71
2022/06/01 03:40:26;;;;;;;23.17;18.63;;;10.70;99.90;;;;;;5051817;28;20049;-71
2022/06/01 03:42:52;;;;;;;21.88;17.55;;;10.80;99.90;;;;;;5051518;28;20132;-71
2022/06/01 03:48:02;;;;;;;23.00;18.75;;;10.70;99.90;;;;;;5050988;28;20083;-71
2022/06/01 03:50:29;;;;;;;21.92;19.63;;;10.70;99.90;;;;;;5051902;28;20055;-71
2022/06/01 03:52:55;;;;;;;24.25;19.63;;;10.70;99.90;;;;;;5050259;28;20118;-71
2022/06/01 03:55:23;;;;;;;22.50;19.65;;;10.70;99.90;;;;;;5051029;28;20136;-71
2022/06/01 03:57:50;;;;;;;20.33;18.10;;;10.70;99.90;;;;;;5052315;28;20069;-71
2022/06/01 04:00:21;;;;;;;21.73;18.35;;;10.70;99.90;;;;;;5050400;28;20040;-71
2022/06/01 04:02:46;;;;;;;22.35;19.55;;;10.70;99.90;;;;;;5050867;28;20079;-71
2022/06/01 04:05:12;;;;;;;20.95;18.55;;;10.70;99.90;;;;;;5052193;28;20045;-71
2022/06/01 04:07:37;;;;;;;23.10;18.52;;;10.70;99.90;;;;;;5050633;28;20044;-71
2022/06/01 04:10:03;;;;;;;24.25;19.17;;;10.80;99.90;;;;;;5051589;28;20428;-71
2022/06/01 04:12:29;;;;;;;24.67;19.60;;;10.80;99.90;;;;;;5050587;28;20090;-71
2022/06/01 04:14:55;;;;;;;23.45;19.58;;;10.80;99.90;;;;;;5050581;28;20563;-71
2022/06/01 04:17:20;;;;;;;21.08;17.73;;;10.80;99.90;;;;;;5051878;28;20499;-71
2022/06/01 04:19:46;;;;;;;21.48;17.65;;;10.80;99.90;;;;;;5051800;28;20067;-71
2022/06/01 04:22:14;;;;;;;21.02;18.73;;;10.80;99.90;;;;;;5050372;28;20059;-71
2022/06/01 04:24:40;;;;;;;22.65;18.17;;;10.90;99.90;;;;;;5033734;28;20049;-71
2022/06/01 04:27:07;;;;;;;21.02;18.83;;;11.00;99.90;;;;;;5051635;28;20041;-71
2022/06/01 04:29:33;;;;;;;20.38;17.60;;;11.00;99.90;;;;;;5050251;28;20037;-71
2022/06/01 04:32:10;;;;;;;22.27;18.42;;;11.10;99.90;;;;;;5049909;28;20048;-71
2022/06/01 04:34:36;;;;;;;21.48;18.55;;;11.10;99.90;;;;;;5051559;28;20483;-71
2022/06/01 04:37:02;;;;;;;20.95;18.33;;;11.20;99.90;;;;;;5051555;28;20068;-71
2022/06/01 04:39:28;;;;;;;22.10;17.60;;;11.20;99.90;;;;;;5050389;28;20499;-71
2022/06/01 04:41:54;;;;;;;20.73;18.25;;;11.20;99.90;;;;;;5033291;28;20048;-71
2022/06/01 04:44:20;;;;;;;23.92;20.60;;;11.30;99.90;;;;;;5050649;28;20041;-71
2022/06/01 04:46:45;;;;;;;22.70;18.35;;;11.20;99.90;;;;;;5051724;28;20043;-71
2022/06/01 04:49:11;;;;;;;25.48;20.52;;;11.30;99.90;;;;;;5051797;28;20487;-71
2022/06/01 04:51:38;;;;;;;22.20;17.98;;;11.30;99.90;;;;;;5051365;28;20414;-71
2022/06/01 04:54:06;;;;;;;22.20;19.38;;;11.40;99.90;;;;;;5050293;28;20443;-71
2022/06/01 04:56:31;;;;;;;21.17;18.88;;;11.40;99.90;;;;;;5051403;28;20486;-71
2022/06/01 04:58:57;;;;;;;23.83;20.17;;;11.40;99.90;;;;;;5051317;28;20039;-71
2022/06/01 05:01:23;;;;;;;20.10;17.50;;;11.50;99.90;;;;;;5049994;28;20399;-71
2022/06/01 05:03:48;;;;;;;25.15;20.02;;;11.60;99.90;;;;;;5052554;28;20037;-71
2022/06/01 05:06:14;;;;;;;23.30;19.65;;;11.60;99.90;;;;;;5054308;28;20049;-71
2022/06/01 05:08:40;;;;;;;24.23;21.63;;;11.70;99.90;;;;;;5055333;28;20495;-71
2022/06/01 05:11:05;;;;;;;22.23;19.77;;;11.80;99.90;;;;;;5053518;28;20044;-71
2022/06/01 05:13:31;;;;;;;19.95;17.77;;;11.80;99.90;;;;;;5055202;28;20033;-71
2022/06/01 05:16:01;;;;;;;23.00;19.60;;;12.00;99.90;;;;;;5055195;28;20130;-70
2022/06/01 05:18:27;;;;;;;25.50;21.02;;;12.00;99.90;;;;;;5055252;28;20163;-71
2022/06/01 05:20:55;;;;;;;24.15;19.42;;;12.00;99.90;;;;;;5054687;28;20037;-71
2022/06/01 05:23:25;;;;;;;23.85;20.42;;;12.00;99.90;;;;;;5055036;28;20142;-71
2022/06/01 05:25:53;;;;;;;24.60;20.75;;;12.00;99.90;;;;;;5054819;28;20041;-71
2022/06/01 05:28:22;;;;;;;23.40;20.77;;;12.00;99.90;;;;;;5053611;28;20040;-71
2022/06/01 05:30:47;;;;;;;25.65;21.48;;;12.00;99.90;;;;;;5053048;28;20398;-71
2022/06/01 05:33:14;;;;;;;22.83;20.15;;;12.00;99.90;;;;;;5053505;28;20037;-71
2022/06/01 05:35:39;;;;;;;23.05;20.55;;;12.00;99.90;;;;;;5054806;28;20041;-71
2022/06/01 05:38:05;;;;;;;24.20;20.77;;;12.00;99.90;;;;;;5054698;28;20033;-71
2022/06/01 05:40:31;;;;;;;26.38;22.00;;;12.00;99.90;;;;;;5052843;28;20098;-71
2022/06/01 05:42:57;;;;;;;25.10;20.02;;;12.00;99.90;;;;;;5054490;28;20040;-71
2022/06/01 05:45:24;;;;;;;23.05;20.38;;;12.00;99.90;;;;;;5053525;28;20400;-71
2022/06/01 05:47:50;;;;;;;21.77;19.23;;;12.10;99.90;;;;;;5054457;28;20112;-71
2022/06/01 05:50:15;;;;;;;21.67;19.33;;;12.10;99.90;;;;;;5052730;28;20044;-71
2022/06/01 05:52:41;;;;;;;27.38;20.50;;;12.10;99.90;;;;;;5052998;28;20251;-71
2022/06/01 05:55:08;;;;;;;23.98;19.38;;;12.10;99.90;;;;;;5053174;28;20044;-71
2022/06/01 05:57:34;;;;;;;23.25;20.20;;;12.10;99.90;;;;;;5054406;28;20048;-71
2022/06/01 06:00:02;;;;;;;22.27;19.30;;;12.00;99.90;;;;;;5052868;28;20041;-71
2022/06/01 06:02:27;;;;;;;23.05;18.67;;;12.00;99.90;;;;;;5054279;28;20041;-71
2022/06/01 06:04:53;;;;;;;24.02;20.70;;;12.00;99.90;;;;;;5054198;28;20045;-71
2022/06/01 06:07:18;;;;;;;23.17;20.02;;;12.10;99.90;;;;;;5052713;28;20124;-71
2022/06/01 06:09:44;;;;;;;25.38;19.65;;;12.10;99.90;;;;;;5052621;28;20076;-71
2022/06/01 06:12:09;;;;;;;21.80;18.92;;;12.20;99.90;;;;;;5052715;28;20045;-71
2022/06/01 06:14:35;;;;;;;24.05;20.17;;;12.20;99.90;;;;;;5053096;28;20033;-71
2022/06/01 06:17:00;;;;;;;20.45;18.17;;;12.20;99.90;;;;;;5053969;28;20082;-71
2022/06/01 06:19:26;;;;;;;25.38;19.90;;;12.20;99.90;;;;;;5053919;28;20051;-71
2022/06/01 06:21:51;;;;;;;21.50;19.15;;;12.20;99.90;;;;;;5052137;28;20054;-71
2022/06/01 06:24:19;;;;;;;22.60;19.70;;;12.30;99.90;;;;;;5054081;28;20078;-71
2022/06/01 06:26:46;;;;;;;23.80;18.77;;;12.30;99.90;;;;;;5052360;28;20041;-71
2022/06/01 06:29:14;;;;;;;23.00;19.05;;;12.40;99.90;;;;;;5053791;28;20095;-71
2022/06/01 06:31:40;;;;;;;21.95;19.63;;;12.40;99.90;;;;;;5052371;28;20403;-71
2022/06/01 06:34:06;;;;;;;21.27;18.67;;;12.40;99.90;;;;;;5053561;28;20069;-71
2022/06/01 06:36:32;;;;;;;24.70;20.13;;;12.30;99.90;;;;;;5053576;28;20092;-71
2022/06/01 06:38:57;;;;;;;23.70;17.77;;;12.30;99.90;;;;;;5053661;28;20029;-71
2022/06/01 06:41:24;;;;;;;19.50;17.40;;;12.30;99.90;;;;;;5051923;28;20037;-71
2022/06/01 06:43:51;;;;;;;20.60;18.30;;;12.30;99.90;;;;;;5052159;28;20049;-71
2022/06/01 06:46:20;;;;;;;21.77;18.40;;;12.30;99.90;;;;;;5053503;28;20064;-71
2022/06/01 06:48:50;;;;;;;19.42;17.13;;;12.30;99.90;;;;;;5053322;28;20047;-72
2022/06/01 06:51:17;;;;;;;18.80;16.77;;;12.30;99.90;;;;;;5052827;28;20130;-71
2022/06/01 06:53:43;;;;;;;20.05;17.25;;;12.30;99.90;;;;;;5051920;28;20055;-71
2022/06/01 06:56:10;;;;;;;19.92;16.77;;;12.30;99.90;;;;;;5053332;28;20036;-69
2022/06/01 06:58:37;;;;;;;18.42;16.52;;;12.50;99.90;;;;;;5064704;28;20090;-71
2022/06/01 07:01:03;;;;;;;19.42;16.23;;;12.50;99.90;;;;;;5071138;28;20048;-70
2022/06/01 07:03:28;;;;;;;15.60;14.00;;;12.60;99.90;;;;;;5072953;28;20055;-70
2022/06/01 07:06:09;;;;;;;15.27;12.43;;;12.70;99.90;;;;;;5072821;28;20513;-70
2022/06/01 07:08:36;;;;;;;15.35;12.75;;;12.80;99.90;;;;;;5072934;28;20526;-70
2022/06/01 07:11:03;;;;;;;13.23;11.57;;;12.90;99.90;;;;;;5071113;28;20094;-70
2022/06/01 07:13:28;;;;;;;13.38;11.98;;;13.10;99.90;;;;;;5072880;28;20079;-70
2022/06/01 07:16:04;;;;;;;14.15;11.73;;;13.20;99.90;;;;;;5072716;28;20075;-70
2022/06/01 07:18:30;;;;;;;11.75;10.52;;;13.20;99.90;;;;;;5072644;28;20524;-70
2022/06/01 07:20:55;;;;;;;11.90;10.73;;;13.50;99.90;;;;;;5070964;28;20040;-71
2022/06/01 07:23:21;;;;;;;10.70;9.60;;;13.80;99.90;;;;;;5071344;28;20044;-70
2022/06/01 07:25:46;;;;;;;11.73;10.48;;;14.20;99.90;;;;;;5072385;28;20382;-70
2022/06/01 07:28:12;;;;;;;12.93;10.48;;;14.30;99.90;;;;;;5072622;28;20495;-71
2022/06/01 07:30:38;;;;;;;18.27;12.48;;;14.20;99.90;;;;;;5070896;28;20040;-70
2022/06/01 07:33:03;;;;;;;15.48;12.02;;;14.00;99.90;;;;;;5072100;28;20036;-70
2022/06/01 07:35:29;;;;;;;14.45;11.95;;;13.80;99.90;;;;;;5054094;28;20033;-70
2022/06/01 07:43:23;;;;;;;12.60;11.40;;;13.40;99.90;;;;;;5070413;28;20045;-70
2022/06/01 07:45:49;;;;;;;10.02;9.02;;;13.40;99.90;;;;;;5054405;28;20048;-70
2022/06/01 07:48:17;;;;;;;9.13;6.25;;;13.60;99.90;;;;;;5070916;28;20048;-70
2022/06/01 07:50:43;;;;;;;7.75;5.85;;;14.20;99.90;;;;;;5070533;28;20049;-70
2022/06/01 07:53:10;;;;;;;3.95;3.53;;;14.50;99.90;;;;;;5072209;28;20107;-70
2022/06/01 07:55:37;;;;;;;7.20;4.07;;;14.90;99.90;;;;;;5072055;28;20040;-70
2022/06/01 07:58:03;;;;;;;3.65;2.88;;;14.90;99.90;;;;;;5070829;28;20045;-70
2022/06/01 08:00:30;;;;;;;4.35;3.47;;;14.70;99.90;;;;;;5071907;28;20059;-70
2022/06/01 08:02:55;;;;;;;5.03;4.05;;;14.50;99.90;;;;;;5072124;28;20052;-70
2022/06/01 08:05:22;;;;;;;6.90;3.47;;;14.40;99.90;;;;;;5071887;28;20036;-70
2022/06/01 08:07:48;;;;;;;3.65;3.00;;;14.00;99.90;;;;;;5071861;28;20561;-70
2022/06/01 08:10:16;;;;;;;4.00;3.67;;;14.00;99.90;;;;;;5071386;28;20040;-70
2022/06/01 08:15:27;;;;;;;4.93;4.43;;;13.70;99.90;;;;;;5070600;28;20052;-70
2022/06/01 08:17:54;;;;;;;5.63;5.13;;;13.80;99.90;;;;;;5070845;28;20044;-70
2022/06/01 08:20:20;;;;;;;8.30;5.97;;;14.10;99.90;;;;;;5071566;28;20040;-70
2022/06/01 08:22:46;;;;;;;7.57;6.85;;;14.70;99.90;;;;;;5071730;28;20046;-70
2022/06/01 08:25:16;;;;;;;9.43;8.52;;;15.00;99.90;;;;;;5071879;28;20106;-70
2022/06/01 08:27:42;;;;;;;9.55;8.63;;;15.30;99.90;;;;;;5070604;28;20079;-70
2022/06/01 08:30:08;;;;;;;10.70;9.60;;;15.30;99.90;;;;;;5071275;28;20079;-71
2022/06/01 08:32:34;;;;;;;10.52;8.48;;;15.00;99.90;;;;;;5071771;28;20047;-70
2022/06/01 08:35:01;;;;;;;11.38;10.27;;;15.10;99.90;;;;;;5071726;28;20041;-71
2022/06/01 08:37:26;;;;;;;11.93;10.73;;;15.10;99.90;;;;;;5071472;28;20437;-71
2022/06/01 08:39:52;;;;;;;11.63;10.18;;;15.20;99.90;;;;;;5078060;28;20100;-71
2022/06/01 08:42:21;;;;;;;11.07;9.90;;;15.20;99.90;;;;;;5076757;28;20085;-71
2022/06/01 08:44:50;;;;;;;9.18;8.27;;;15.30;99.90;;;;;;5076929;28;20044;-71
2022/06/01 08:47:27;;;;;;;8.48;7.68;;;15.30;99.90;;;;;;5076927;28;20574;-70
2022/06/01 08:49:56;;;;;;;9.38;8.40;;;15.40;99.90;;;;;;5076486;28;20551;-71
2022/06/01 08:52:24;;;;;;;9.52;8.52;;;15.60;99.90;;;;;;5078254;28;20047;-71
2022/06/01 08:54:50;;;;;;;9.90;8.75;;;15.60;99.90;;;;;;5077942;28;20513;-71
2022/06/01 08:57:43;;;;;;;8.02;7.22;;;16.40;99.90;;;;;;5078209;28;20043;-70
2022/06/01 09:00:14;;;;;;;7.57;6.53;;;16.50;99.90;;;;;;5069161;28;20105;-71
2022/06/01 09:03:15;;;;;;;8.35;7.13;;;16.40;99.90;;;;;;5078246;28;20051;-71
2022/06/01 09:05:48;;;;;;;8.40;6.80;;;16.50;99.90;;;;;;5077865;28;20616;-71
2022/06/01 09:08:45;;;;;;;6.82;6.13;;;16.30;99.90;;;;;;5077913;28;20510;-71
2022/06/01 09:11:14;;;;;;;9.70;7.78;;;16.30;99.90;;;;;;5076191;28;20499;-71
2022/06/01 09:14:14;;;;;;;7.95;6.80;;;16.00;99.90;;;;;;5077985;28;20394;-70
2022/06/01 09:16:48;;;;;;;8.55;6.13;;;16.00;99.90;;;;;;5077756;28;20094;-71
2022/06/01 09:22:42;;;;;;;11.32;8.65;;;15.90;99.90;;;;;;5072461;28;20036;-71
2022/06/01 09:25:20;;;;;;;9.20;8.40;;;15.70;99.90;;;;;;5076354;28;20108;-70
2022/06/01 09:27:51;;;;;;;10.25;7.28;;;15.60;99.90;;;;;;5076375;28;20041;-70
2022/06/01 09:30:17;;;;;;;10.38;7.88;;;15.40;99.90;;;;;;5073938;28;20086;-71
2022/06/01 09:32:59;;;;;;;9.18;7.13;;;15.20;99.90;;;;;;5076341;28;20040;-71
2022/06/01 09:35:28;;;;;;;7.68;6.35;;;15.10;99.90;;;;;;5076135;28;20048;-71
2022/06/01 09:37:54;;;;;;;9.27;6.25;;;15.10;99.90;;;;;;5077162;28;20119;-70
2022/06/01 09:40:33;;;;;;;9.82;6.20;;;15.00;99.90;;;;;;5077385;28;20621;-70
2022/06/01 09:43:00;;;;;;;6.32;5.50;;;15.50;99.90;;;;;;5076454;28;20093;-70
2022/06/01 09:45:47;;;;;;;5.55;4.45;;;16.10;99.90;;;;;;5077511;28;20536;-71
2022/06/01 09:48:23;;;;;;;3.92;3.50;;;16.70;99.90;;;;;;5075925;28;20046;-70
2022/06/01 09:51:18;;;;;;;4.63;3.72;;;17.30;99.90;;;;;;5071306;28;20054;-71
2022/06/01 09:53:48;;;;;;;4.65;3.13;;;17.90;99.90;;;;;;5073698;28;20045;-71
2022/06/01 09:56:28;;;;;;;4.50;3.20;;;18.10;99.40;;;;;;5073288;28;20376;-71
2022/06/01 10:07:24;;;;;;;5.28;2.45;;;16.20;99.90;;;;;;5074331;28;20044;-70
2022/06/01 10:09:58;;;;;;;6.82;3.38;;;15.70;99.90;;;;;;5074057;28;20036;-70
2022/06/01 10:12:47;;;;;;;3.75;3.35;;;15.50;99.90;;;;;;5072745;28;20501;-70
2022/06/01 10:15:27;;;;;;;11.10;6.30;;;15.30;99.90;;;;;;5074014;28;20443;-70
2022/06/01 10:18:01;;;;;;;12.60;6.93;;;14.30;99.90;;;;;;5074100;28;20086;-70
2022/06/01 10:20:37;;;;;;;11.65;7.40;;;13.60;99.90;;;;;;5073704;28;20521;-70
2022/06/01 10:23:03;;;;;;;10.40;8.57;;;12.90;99.90;;;;;;5072526;28;20036;-70
2022/06/01 10:25:38;;;;;;;10.82;8.32;;;12.50;99.90;;;;;;5073856;28;20402;-70
2022/06/01 10:28:14;;;;;;;8.45;7.47;;;12.40;99.90;;;;;;5072801;28;20036;-70
2022/06/01 10:30:46;;;;;;;9.38;7.95;;;12.30;99.90;;;;;;5073468;28;20049;-70
2022/06/01 10:33:35;;;;;;;8.93;8.02;;;12.30;99.90;;;;;;5072442;28;20046;-70
2022/06/01 10:36:30;;;;;;;13.00;8.57;;;12.40;99.90;;;;;;5072572;28;20406;-70
2022/06/01 10:39:03;;;;;;;12.77;7.88;;;12.80;99.90;;;;;;5066456;28;20502;-70
2022/06/01 10:41:36;;;;;;;8.88;6.18;;;13.10;99.90;;;;;;5073186;28;20050;-70
2022/06/01 10:44:35;;;;;;;7.95;7.15;;;13.40;99.90;;;;;;5073577;28;20044;-70
2022/06/01 10:47:29;;;;;;;9.95;8.35;;;13.70;99.90;;;;;;5061719;28;20403;-70
2022/06/01 10:50:06;;;;;;;11.95;8.48;;;14.00;99.90;;;;;;5073108;28;20041;-70
2022/06/01 10:52:34;;;;;;;9.95;7.15;;;14.30;99.90;;;;;;5073241;28;20043;-70
2022/06/01 10:55:12;;;;;;;10.13;7.55;;;14.20;99.90;;;;;;5055307;28;20084;-70
2022/06/01 10:57:41;;;;;;;6.90;6.15;;;14.50;99.90;;;;;;5072222;28;20037;-70
2022/06/01 11:00:13;;;;;;;6.68;5.97;;;14.60;99.90;;;;;;5071522;28;20546;-70
2022/06/01 11:02:57;;;;;;;7.30;6.10;;;14.90;99.90;;;;;;5071955;28;20539;-70
2022/06/01 11:05:27;;;;;;;;;;;15.00;99.90;;;;;;5073325;28;20044;-70
2022/06/01 11:08:16;;;;;;;7.38;6.13;;;15.10;99.90;;;;;;5073021;28;20364;-70
2022/06/01 11:11:03;;;;;;;7.07;5.63;;;15.20;99.90;;;;;;5072583;28;20047;-70
2022/06/01 11:13:50;;;;;;;6.72;5.95;;;15.20;99.90;;;;;;5072867;28;20442;-70
2022/06/01 11:16:50;;;;;;;6.88;5.65;;;15.20;99.90;;;;;;5072748;28;20565;-70
2022/06/01 11:19:53;;;;;;;7.53;6.70;;;15.40;99.90;;;;;;5072866;28;20075;-70
2022/06/01 11:22:56;;;;;;;7.28;6.57;;;15.60;99.90;;;;;;5072828;28;20115;-70
2022/06/01 11:26:13;;;;;;;7.38;6.68;;;15.70;99.90;;;;;;5071437;28;20383;-70
2022/06/01 11:29:10;;;;;;;6.63;5.93;;;15.80;99.90;;;;;;5038002;28;20056;-70
2022/06/01 11:31:38;;;;;;;6.97;5.82;;;15.80;99.90;;;;;;5072152;28;20510;-70
2022/06/01 11:34:29;;;;;;;5.28;4.88;;;15.50;99.90;;;;;;5072349;28;20072;-70
2022/06/01 11:37:14;;;;;;;4.10;3.70;;;15.40;99.90;;;;;;5071386;28;20390;-71
2022/06/01 11:40:10;;;;;;;3.92;3.58;;;14.90;99.90;;;;;;5072460;28;20115;-71
2022/06/01 11:42:41;;;;;;;3.58;3.28;;;14.70;99.90;;;;;;5070184;28;20448;-71
2022/06/01 11:45:12;;;;;;;4.10;2.78;;;14.60;99.90;;;;;;5071546;28;20037;-71
2022/06/01 11:48:08;;;;;;;4.28;3.17;;;14.40;99.90;;;;;;5070594;28;20040;-72
2022/06/01 11:51:08;;;;;;;3.33;3.03;;;14.20;99.90;;;;;;5067754;28;20055;-71
2022/06/01 11:54:00;;;;;;;2.67;2.47;;;14.10;99.90;;;;;;5072027;28;20032;-72
2022/06/01 11:56:45;;;;;;;2.97;2.67;;;14.00;99.90;;;;;;5054234;28;20076;-71
2022/06/01 11:59:32;;;;;;;4.85;3.08;;;14.00;99.90;;;;;;5072300;28;20142;-71
2022/06/01 12:02:00;;;;;;;3.15;2.85;;;13.90;99.90;;;;;;5070672;28;20052;-71
2022/06/01 12:04:54;;;;;;;3.22;2.83;;;13.90;99.90;;;;;;5072091;28;20068;-72
2022/06/01 12:07:32;;;;;;;3.38;3.05;;;13.80;99.90;;;;;;5071034;28;20383;-71
2022/06/01 12:10:21;;;;;;;3.83;3.20;;;13.80;99.90;;;;;;5071100;28;20047;-71
2022/06/01 12:13:16;;;;;;;4.47;2.80;;;13.80;99.90;;;;;;5070719;28;20040;-71
2022/06/01 12:16:04;;;;;;;3.55;3.05;;;13.60;99.90;;;;;;5069156;28;20032;-71
2022/06/01 12:18:31;;;;;;;4.97;3.90;;;13.60;99.90;;;;;;5051765;28;20037;-71
2022/06/01 12:21:17;;;;;;;4.60;3.80;;;13.50;99.90;;;;;;5051565;28;20048;-71
2022/06/01 12:30:05;;;;;;;5.38;4.13;;;13.60;99.90;;;;;;5071162;28;20048;-71
2022/06/01 12:32:51;;;;;;;5.43;4.85;;;13.80;99.90;;;;;;5070713;28;20174;-71
2022/06/01 12:35:19;;;;;;;4.93;3.58;;;14.00;99.90;;;;;;5071505;28;20083;-72
2022/06/01 12:37:51;;;;;;;4.18;3.78;;;14.30;99.90;;;;;;5053440;28;20032;-71
2022/06/01 12:40:21;;;;;;;3.85;3.20;;;14.50;99.90;;;;;;5069968;28;20045;-71
2022/06/01 12:42:58;;;;;;;4.30;3.58;;;14.80;99.90;;;;;;5071861;28;20044;-71
2022/06/01 12:45:28;;;;;;;3.78;3.20;;;15.00;99.90;;;;;;5070239;28;20498;-71
2022/06/01 12:47:59;;;;;;;3.75;2.95;;;15.00;99.90;;;;;;5071578;28;20044;-71
2022/06/01 12:50:28;;;;;;;4.30;3.17;;;15.10;99.90;;;;;;5070134;28;20147;-71
2022/06/01 12:53:15;;;;;;;5.45;4.68;;;15.50;99.90;;;;;;5071594;28;20044;-72
2022/06/01 12:55:42;;;;;;;3.88;3.47;;;15.70;99.90;;;;;;5070139;28;20055;-71
2022/06/01 12:58:15;;;;;;;3.40;3.10;;;16.00;99.90;;;;;;5071778;28;20025;-71
2022/06/01 13:00:55;;;;;;;4.38;3.67;;;15.90;99.90;;;;;;5069895;28;20044;-72
2022/06/01 13:03:32;;;;;;;4.30;3.90;;;16.00;99.90;;;;;;5070201;28;20134;-72
2022/06/01 13:06:02;;;;;;;5.90;4.18;;;16.20;99.90;;;;;;5071472;28;20048;-72
2022/06/01 13:08:32;;;;;;;4.15;3.70;;;16.20;99.90;;;;;;5071342;28;20072;-72
2022/06/01 13:11:21;;;;;;;4.05;3.63;;;16.00;99.90;;;;;;5070921;28;20498;-71
2022/06/01 13:13:47;;;;;;;4.05;3.58;;;15.60;99.90;;;;;;5071445;28;20124;-71
2022/06/01 13:16:14;;;;;;;3.72;3.40;;;15.40;99.90;;;;;;5071337;28;20111;-72
2022/06/01 13:18:44;;;;;;;4.55;2.90;;;15.30;99.90;;;;;;5071191;28;20055;-71
2022/06/01 13:21:14;;;;;;;2.63;1.92;;;14.90;99.90;;;;;;5069912;28;20548;-71
2022/06/01 13:23:54;;;;;;;2.35;2.15;;;14.70;99.90;;;;;;5070634;28;20048;-71
2022/06/01 13:26:40;;;;;;;1.50;1.33;;;14.50;99.90;;;;;;5074484;28;20036;-71
2022/06/01 13:29:16;;;;;;;1.73;1.30;;;14.30;99.90;;;;;;5072565;28;20391;-71
2022/06/01 13:31:45;;;;;;;3.63;1.42;;;14.20;99.90;;;;;;5070580;28;20099;-72